This is the latest recevied weather packets stored in our database for station/object N7TUG-8. If no packets are shown the sender has not sent any weather packets the latest 10 day(s).
| Time | Temp. | Humidity | Pressure | Rain* | Wind** | Luminosity | Snow |
|---|---|---|---|---|---|---|---|
| 1778098782 | 14.44° C | 76% | 1020.1 hPa | 0 mm | 2.68 m/s, 166° | - | - |
| 1778098421 | 14.44° C | 76% | 1020.2 hPa | 0 mm | 2.68 m/s, 155° | - | - |
| 1778097997 | 14.44° C | 78% | 1020.3 hPa | 0 mm | 2.68 m/s, 150° | - | - |
| 1778097546 | 15° C | 77% | 1020.1 hPa | 0 mm | 2.24 m/s, 156° | - | - |
| 1778097242 | 14.44° C | 78% | 1020.2 hPa | 0 mm | 2.68 m/s, 162° | - | - |
| 1778096666 | 13.89° C | 79% | 1020.1 hPa | 0 mm | 2.68 m/s, 141° | - | - |
| 1778096491 | 13.89° C | 79% | 1020.1 hPa | 0 mm | 2.68 m/s, 141° | - | - |
| 1778095821 | 13.33° C | 80% | 1020.1 hPa | 0 mm | 3.58 m/s, 138° | - | - |
| 1778095637 | 14.44° C | 79% | 1020.1 hPa | 0 mm | 2.68 m/s, 136° | - | - |
| 1778094946 | 13.33° C | 81% | 1020.1 hPa | 0 mm | 2.68 m/s, 135° | - | - |
| 1778094797 | 13.33° C | 81% | 1020 hPa | 0 mm | 2.68 m/s, 146° | - | - |
| 1778094096 | 13.33° C | 82% | 1020 hPa | 0 mm | 3.13 m/s, 141° | - | - |
| 1778094021 | 13.33° C | 82% | 1020 hPa | 0 mm | 3.13 m/s, 141° | - | - |
| 1778093277 | 13.33° C | 82% | 1020 hPa | 0 mm | 3.13 m/s, 128° | - | - |
| 1778093136 | 13.33° C | 82% | 1020 hPa | 0 mm | 3.13 m/s, 128° | - | - |
| 1778092509 | 13.33° C | 83% | 1020.1 hPa | 0 mm | 3.13 m/s, 139° | - | - |
| 1778092201 | 13.33° C | 83% | 1020 hPa | 0 mm | 2.68 m/s, 140° | - | - |
| 1778091691 | 13.33° C | 84% | 1020.1 hPa | 0 mm | 2.24 m/s, 157° | - | - |
| 1778091426 | 13.33° C | 84% | 1020 hPa | 0 mm | 2.68 m/s, 145° | - | - |
| 1778090481 | 13.33° C | 85% | 1020 hPa | 0 mm | 2.24 m/s, 160° | - | - |
| 1778089586 | 12.78° C | 88% | 1019.5 hPa | 0 mm | 3.13 m/s, 142° | - | - |
| 1778089287 | 13.33° C | 88% | 1019.7 hPa | 0 mm | 3.13 m/s, 128° | - | - |
| 1778088641 | 13.33° C | 88% | 1019.7 hPa | 0 mm | 1.79 m/s, 156° | - | - |
| 1778088502 | 12.78° C | 90% | 1019.7 hPa | 0 mm | 2.68 m/s, 142° | - | - |
| 1778087831 | 12.22° C | 91% | 1019.8 hPa | 0 mm | 3.13 m/s, 122° | - | - |
* Rain latest hour (hover to see other rain measurements)
** Current wind speed in m/s (hover to see current wind gust speed)